Time;durP1;ratioP1;P1;durP2;ratioP2;P2;SDS_P1;SDS_P2;PMS_P1;PMS_P2;Temp;Humidity;BMP_temperature;BMP_pressure;BME280_temperature;BME280_humidity;BME280_pressure;Samples;Min_cycle;Max_cycle;Signal;HPM_P1;HPM_P2
2022/10/06 00:00:23;;;;;;;3.50;2.20;;;14.00;99.90;;;;;;5116403;28;20281;-64
2022/10/06 00:02:49;;;;;;;4.40;2.63;;;13.80;99.90;;;;;;5117147;28;20161;-64
2022/10/06 00:05:14;;;;;;;2.13;2.03;;;13.80;99.90;;;;;;5116628;28;20220;-65
2022/10/06 00:07:40;;;;;;;3.65;2.03;;;13.70;99.90;;;;;;5130558;27;20219;-64
2022/10/06 00:10:06;;;;;;;3.15;2.20;;;13.60;99.90;;;;;;5136919;27;20170;-64
2022/10/06 00:12:47;;;;;;;2.40;2.20;;;13.50;99.90;;;;;;5135598;27;20272;-64
2022/10/06 00:15:16;;;;;;;3.83;2.60;;;13.30;99.90;;;;;;5136994;27;20167;-65
2022/10/06 00:17:42;;;;;;;4.72;2.38;;;13.30;99.90;;;;;;5134438;27;20176;-65
2022/10/06 00:20:09;;;;;;;3.70;2.45;;;13.20;99.90;;;;;;5137338;27;20624;-65
2022/10/06 00:22:40;;;;;;;3.33;2.33;;;13.20;99.90;;;;;;5135472;27;20196;-64
2022/10/06 00:25:07;;;;;;;5.00;2.47;;;13.20;99.90;;;;;;5136051;27;20183;-64
2022/10/06 00:27:41;;;;;;;4.20;2.45;;;13.30;99.90;;;;;;5138416;27;20176;-66
2022/10/06 00:30:10;;;;;;;2.55;2.28;;;13.20;99.90;;;;;;5119615;28;20168;-64
2022/10/06 00:32:38;;;;;;;4.88;2.38;;;13.20;99.90;;;;;;5119381;28;20195;-65
2022/10/06 00:35:05;;;;;;;2.40;2.10;;;13.20;99.90;;;;;;5116284;28;20180;-65
2022/10/06 00:37:35;;;;;;;2.88;2.08;;;13.20;99.90;;;;;;5128232;27;20176;-65
2022/10/06 00:40:05;;;;;;;5.07;2.15;;;13.20;99.90;;;;;;5136838;27;20620;-64
2022/10/06 00:42:31;;;;;;;2.80;2.15;;;13.10;99.90;;;;;;5136330;27;20195;-65
2022/10/06 00:45:03;;;;;;;3.33;2.42;;;13.10;99.90;;;;;;5134828;27;20262;-64
2022/10/06 00:47:31;;;;;;;3.85;2.30;;;13.10;99.90;;;;;;5136313;27;20156;-64
2022/10/06 00:50:01;;;;;;;3.97;2.30;;;13.10;99.90;;;;;;5135196;27;20581;-65
2022/10/06 00:52:29;;;;;;;7.25;2.28;;;13.10;99.90;;;;;;5135015;27;20604;-65
2022/10/06 00:54:58;;;;;;;4.43;2.45;;;13.20;99.90;;;;;;5136556;27;20167;-65
2022/10/06 00:57:25;;;;;;;3.67;2.40;;;13.10;99.90;;;;;;5135494;27;20636;-65
2022/10/06 00:59:52;;;;;;;2.63;2.40;;;13.10;99.90;;;;;;5115753;28;20149;-65
2022/10/06 01:02:31;;;;;;;7.65;2.70;;;13.10;99.90;;;;;;5115371;28;20218;-65
2022/10/06 01:04:59;;;;;;;5.90;2.58;;;13.10;99.90;;;;;;5115987;28;20157;-64
2022/10/06 01:07:27;;;;;;;5.95;2.88;;;13.10;99.90;;;;;;5127156;27;20270;-64
2022/10/06 01:09:54;;;;;;;5.70;2.50;;;13.10;99.90;;;;;;5135914;27;20175;-64
2022/10/06 01:12:21;;;;;;;7.28;2.70;;;13.20;99.90;;;;;;5135763;27;20274;-64
2022/10/06 01:14:47;;;;;;;5.60;2.42;;;13.20;99.90;;;;;;5134137;27;20577;-64
2022/10/06 01:17:32;;;;;;;8.52;2.80;;;13.20;99.90;;;;;;5134525;27;20183;-65
2022/10/06 01:20:01;;;;;;;6.93;2.45;;;13.20;99.90;;;;;;5135720;27;20217;-65
2022/10/06 01:22:37;;;;;;;4.00;2.45;;;13.30;99.90;;;;;;5135588;27;20223;-65
2022/10/06 01:25:05;;;;;;;5.13;2.78;;;13.30;99.90;;;;;;5135740;27;20181;-64
2022/10/06 01:27:32;;;;;;;6.68;2.50;;;13.20;99.90;;;;;;5132835;27;20179;-65
2022/10/06 01:29:58;;;;;;;6.43;3.28;;;13.20;99.90;;;;;;5113256;28;20189;-65
2022/10/06 01:32:26;;;;;;;5.15;2.50;;;13.20;99.90;;;;;;5113628;28;20612;-65
2022/10/06 01:34:52;;;;;;;7.78;2.78;;;13.10;99.90;;;;;;5115172;28;20172;-64
2022/10/06 01:37:18;;;;;;;7.30;2.53;;;13.20;99.90;;;;;;5125619;27;20176;-65
2022/10/06 01:39:44;;;;;;;5.45;2.30;;;13.10;99.90;;;;;;5135958;27;20192;-67
2022/10/06 01:42:10;;;;;;;6.07;2.55;;;13.00;99.90;;;;;;5135193;27;20195;-68
2022/10/06 01:44:36;;;;;;;5.75;2.60;;;13.10;99.90;;;;;;5135168;27;20164;-68
2022/10/06 01:47:06;;;;;;;10.93;2.60;;;13.00;99.90;;;;;;5133784;27;20207;-68
2022/10/06 01:49:32;;;;;;;5.18;2.80;;;13.00;99.90;;;;;;5135254;27;20195;-68
2022/10/06 01:51:58;;;;;;;6.28;2.80;;;12.90;99.90;;;;;;5136151;27;20198;-67
2022/10/06 01:54:23;;;;;;;6.68;2.85;;;12.90;99.90;;;;;;5133976;27;20210;-68
2022/10/06 01:56:49;;;;;;;7.38;3.25;;;12.90;99.90;;;;;;5135044;27;20168;-68
2022/10/06 01:59:15;;;;;;;10.02;3.25;;;12.90;99.90;;;;;;5118425;27;20244;-68
2022/10/06 02:01:41;;;;;;;6.97;3.15;;;12.80;99.90;;;;;;5114669;28;20195;-68
2022/10/06 02:04:06;;;;;;;5.60;3.22;;;12.80;99.90;;;;;;5114439;28;20247;-67
2022/10/06 02:06:32;;;;;;;9.18;2.95;;;12.90;99.90;;;;;;5118188;27;20738;-68
2022/10/06 02:08:59;;;;;;;8.25;3.30;;;12.80;99.90;;;;;;5135185;27;20243;-68
2022/10/06 02:11:25;;;;;;;7.43;3.15;;;12.80;99.90;;;;;;5134768;27;20202;-68
2022/10/06 02:13:51;;;;;;;8.07;2.97;;;12.80;99.90;;;;;;5135458;27;20255;-68
2022/10/06 02:16:18;;;;;;;16.87;3.60;;;12.70;99.90;;;;;;5133343;27;20211;-68
2022/10/06 02:18:43;;;;;;;8.73;3.22;;;12.80;99.90;;;;;;5134933;27;20195;-67
2022/10/06 02:21:18;;;;;;;8.45;3.13;;;12.70;99.90;;;;;;5134790;27;20195;-67
2022/10/06 02:23:44;;;;;;;8.50;2.97;;;12.70;99.90;;;;;;5133641;27;20258;-67
2022/10/06 02:26:09;;;;;;;6.23;2.80;;;12.70;99.90;;;;;;5133444;28;20317;-67
2022/10/06 02:28:35;;;;;;;8.63;3.00;;;12.70;99.90;;;;;;5123869;27;20188;-68
2022/10/06 02:31:07;;;;;;;9.73;3.50;;;12.70;99.90;;;;;;5113967;28;20223;-68
2022/10/06 02:33:34;;;;;;;7.07;3.17;;;12.70;99.90;;;;;;5114572;28;20172;-68
2022/10/06 02:36:00;;;;;;;10.55;3.65;;;12.70;99.90;;;;;;5114403;28;20292;-68
2022/10/06 02:38:26;;;;;;;12.88;3.25;;;12.60;99.90;;;;;;5134072;28;20184;-68
2022/10/06 02:40:52;;;;;;;12.60;3.53;;;12.70;99.90;;;;;;5134596;27;20203;-68
2022/10/06 02:43:19;;;;;;;11.95;2.90;;;12.70;99.90;;;;;;5138880;27;20679;-68
2022/10/06 02:46:06;;;;;;;7.97;3.28;;;12.70;99.90;;;;;;5138593;27;20337;-68
2022/10/06 02:48:33;;;;;;;11.38;3.38;;;12.70;99.90;;;;;;5137527;27;20172;-68
2022/10/06 02:51:01;;;;;;;8.70;2.97;;;12.60;99.90;;;;;;5137803;27;20536;-68
2022/10/06 02:53:28;;;;;;;12.43;3.85;;;12.60;99.90;;;;;;5138650;27;20175;-68
2022/10/06 02:55:59;;;;;;;6.18;3.00;;;12.60;99.90;;;;;;5138516;27;20171;-68
2022/10/06 02:58:26;;;;;;;10.75;3.55;;;12.60;99.90;;;;;;5128845;27;20229;-68
2022/10/06 03:00:52;;;;;;;6.97;3.30;;;12.60;99.90;;;;;;5117745;28;20672;-68
2022/10/06 03:03:17;;;;;;;5.50;2.95;;;12.60;99.90;;;;;;5117930;28;20176;-68
2022/10/06 03:05:43;;;;;;;12.80;3.70;;;12.60;99.90;;;;;;5117877;28;20206;-68
2022/10/06 03:08:11;;;;;;;10.80;3.60;;;12.60;99.90;;;;;;5135645;27;20194;-68
2022/10/06 03:10:37;;;;;;;5.07;3.08;;;12.60;99.90;;;;;;5138446;27;20546;-68
2022/10/06 03:13:03;;;;;;;4.95;2.97;;;12.60;99.90;;;;;;5138241;27;20172;-68
2022/10/06 03:15:29;;;;;;;11.30;3.20;;;12.60;99.90;;;;;;5137001;27;20176;-68
2022/10/06 03:17:54;;;;;;;9.93;3.17;;;12.50;99.90;;;;;;5136838;27;20244;-68
2022/10/06 03:20:20;;;;;;;9.20;3.25;;;12.50;99.90;;;;;;5136857;27;20190;-68
2022/10/06 03:22:46;;;;;;;7.68;3.63;;;12.50;99.90;;;;;;5138010;27;20591;-67
2022/10/06 03:25:11;;;;;;;9.27;3.33;;;12.50;99.90;;;;;;5138105;27;20208;-68
2022/10/06 03:27:37;;;;;;;8.63;2.92;;;12.50;99.90;;;;;;5135362;27;20168;-68
2022/10/06 03:30:05;;;;;;;11.00;3.38;;;12.50;99.90;;;;;;5117241;28;20544;-68
2022/10/06 03:32:31;;;;;;;8.05;3.15;;;12.50;99.90;;;;;;5117295;28;20195;-68
2022/10/06 03:34:56;;;;;;;12.07;2.90;;;12.50;99.90;;;;;;5117232;28;20535;-68
2022/10/06 03:37:22;;;;;;;12.60;3.90;;;12.50;99.90;;;;;;5127143;27;20202;-68
2022/10/06 03:39:48;;;;;;;9.23;3.00;;;12.60;99.90;;;;;;5137668;27;20229;-68
2022/10/06 03:42:13;;;;;;;8.20;3.30;;;12.60;99.90;;;;;;5136418;27;20619;-68
2022/10/06 03:44:39;;;;;;;14.70;3.47;;;12.60;99.90;;;;;;5136357;27;20724;-68
2022/10/06 03:47:05;;;;;;;10.93;3.50;;;12.60;99.90;;;;;;5137565;27;20211;-68
2022/10/06 03:49:31;;;;;;;8.73;3.67;;;12.60;99.90;;;;;;5137530;27;20171;-68
2022/10/06 03:51:56;;;;;;;15.80;3.70;;;12.60;99.90;;;;;;5137525;27;20199;-68
2022/10/06 03:54:22;;;;;;;12.82;3.75;;;12.60;99.90;;;;;;5137548;27;20195;-68
2022/10/06 03:56:48;;;;;;;10.60;3.40;;;12.60;99.90;;;;;;5138268;27;20182;-68
2022/10/06 03:59:18;;;;;;;11.63;3.50;;;12.60;99.90;;;;;;5121246;27;20207;-68
2022/10/06 04:01:46;;;;;;;7.30;3.33;;;12.60;99.90;;;;;;5116703;28;20192;-68
2022/10/06 04:04:12;;;;;;;10.37;3.33;;;12.50;99.90;;;;;;5116614;28;20542;-68
2022/10/06 04:06:40;;;;;;;12.23;3.73;;;12.50;99.90;;;;;;5121639;27;20203;-67
2022/10/06 04:09:08;;;;;;;8.07;3.17;;;12.40;99.90;;;;;;5137451;27;20160;-68
2022/10/06 04:11:36;;;;;;;12.47;3.50;;;12.40;99.90;;;;;;5137018;27;20675;-68
2022/10/06 04:14:06;;;;;;;12.02;3.40;;;12.40;99.90;;;;;;5137315;27;20164;-68
2022/10/06 04:16:40;;;;;;;10.20;3.57;;;12.40;99.90;;;;;;5137331;27;20251;-68
2022/10/06 04:19:08;;;;;;;10.03;3.43;;;12.40;99.90;;;;;;5137315;27;20155;-68
2022/10/06 04:21:36;;;;;;;12.50;4.20;;;12.30;99.90;;;;;;5136848;27;20716;-68
2022/10/06 04:24:02;;;;;;;9.38;3.25;;;12.30;99.90;;;;;;5135660;27;20620;-68
2022/10/06 04:26:31;;;;;;;9.10;3.20;;;12.30;99.90;;;;;;5136519;27;20203;-68
2022/10/06 04:28:56;;;;;;;10.73;3.90;;;12.30;99.90;;;;;;5121388;27;20296;-68
2022/10/06 04:31:25;;;;;;;6.05;3.35;;;12.30;99.90;;;;;;5116244;28;20654;-68
2022/10/06 04:33:53;;;;;;;10.50;3.40;;;12.30;99.90;;;;;;5116206;28;20541;-68
2022/10/06 04:36:22;;;;;;;8.87;3.40;;;12.20;99.90;;;;;;5118391;27;20204;-68
2022/10/06 04:38:57;;;;;;;9.73;3.20;;;12.20;99.90;;;;;;5137228;27;20171;-68
2022/10/06 04:41:25;;;;;;;14.40;3.53;;;12.10;99.90;;;;;;5136898;27;20203;-68
2022/10/06 04:43:51;;;;;;;14.37;4.17;;;12.10;99.90;;;;;;5136452;27;20180;-68
2022/10/06 04:46:19;;;;;;;10.07;3.83;;;12.10;99.90;;;;;;5136233;27;20242;-68
2022/10/06 04:48:45;;;;;;;8.90;3.87;;;12.00;99.90;;;;;;5135277;27;20172;-68
2022/10/06 04:51:13;;;;;;;8.00;3.27;;;12.00;99.90;;;;;;5137451;27;20270;-68
2022/10/06 04:53:40;;;;;;;9.85;3.53;;;11.90;99.90;;;;;;5137186;27;20164;-67
2022/10/06 04:56:25;;;;;;;9.67;3.80;;;11.90;99.90;;;;;;5137063;27;20171;-68
2022/10/06 04:58:53;;;;;;;11.43;3.50;;;11.80;99.90;;;;;;5123406;27;20176;-67
2022/10/06 05:01:30;;;;;;;9.90;4.03;;;11.80;99.90;;;;;;5114056;28;20283;-68
2022/10/06 05:03:58;;;;;;;8.67;3.57;;;11.80;99.90;;;;;;5115270;28;20536;-67
2022/10/06 05:06:26;;;;;;;13.10;4.17;;;11.80;99.90;;;;;;5116964;27;20218;-67
2022/10/06 05:08:57;;;;;;;14.38;4.22;;;11.80;99.90;;;;;;5136593;27;20167;-67
2022/10/06 05:11:23;;;;;;;8.67;3.90;;;11.70;99.90;;;;;;5136175;27;20195;-67
2022/10/06 05:13:54;;;;;;;9.40;4.40;;;11.70;99.90;;;;;;5135755;27;20225;-67
2022/10/06 05:16:21;;;;;;;9.67;3.70;;;11.70;99.90;;;;;;5134438;27;20186;-67
2022/10/06 05:18:46;;;;;;;12.43;4.20;;;11.70;99.90;;;;;;5135953;27;20176;-67
2022/10/06 05:21:15;;;;;;;10.47;4.00;;;11.60;99.90;;;;;;5135586;27;20202;-67
2022/10/06 05:23:42;;;;;;;12.53;3.73;;;11.60;99.90;;;;;;5135931;27;20242;-67
2022/10/06 05:26:16;;;;;;;19.07;4.73;;;11.60;99.90;;;;;;5134208;27;20248;-67
2022/10/06 05:28:42;;;;;;;9.57;4.20;;;11.50;99.90;;;;;;5124094;27;20283;-67
2022/10/06 05:31:12;;;;;;;11.30;4.30;;;11.50;99.90;;;;;;5114621;28;20185;-68
2022/10/06 05:33:39;;;;;;;14.07;3.97;;;11.50;99.90;;;;;;5113756;28;20668;-67
2022/10/06 05:36:27;;;;;;;9.10;3.83;;;11.50;99.90;;;;;;5115125;27;20629;-67
2022/10/06 05:38:54;;;;;;;10.67;3.57;;;11.50;99.90;;;;;;5135568;27;20209;-67
2022/10/06 05:41:27;;;;;;;14.97;4.37;;;11.40;99.90;;;;;;5133746;27;20211;-67
2022/10/06 05:43:53;;;;;;;11.63;3.97;;;11.40;99.90;;;;;;5135542;27;20573;-67
2022/10/06 05:46:24;;;;;;;16.03;4.30;;;11.40;99.90;;;;;;5135097;27;20191;-67
2022/10/06 05:48:53;;;;;;;14.30;4.13;;;11.30;99.90;;;;;;5133880;27;20530;-68
2022/10/06 05:51:20;;;;;;;15.63;4.13;;;11.30;99.90;;;;;;5133778;27;20248;-68
2022/10/06 05:53:47;;;;;;;16.07;4.33;;;11.20;99.90;;;;;;5135592;27;20624;-68
2022/10/06 05:56:18;;;;;;;10.53;4.20;;;11.20;99.90;;;;;;5134996;27;20255;-68
2022/10/06 05:58:47;;;;;;;13.03;4.00;;;11.20;99.90;;;;;;5122754;27;20223;-69
2022/10/06 06:01:16;;;;;;;15.13;4.27;;;11.20;99.90;;;;;;5114278;28;20281;-68
2022/10/06 06:03:46;;;;;;;17.27;4.27;;;11.20;99.90;;;;;;5114338;27;20172;-68
2022/10/06 06:06:21;;;;;;;12.97;3.70;;;11.20;99.90;;;;;;5116326;27;20337;-72
2022/10/06 06:08:51;;;;;;;11.53;3.90;;;11.10;99.90;;;;;;5135741;27;20162;-72
2022/10/06 06:11:16;;;;;;;8.30;3.77;;;11.10;99.90;;;;;;5135571;27;20184;-73
2022/10/06 06:13:42;;;;;;;13.27;4.37;;;11.10;99.90;;;;;;5134991;27;20642;-72
2022/10/06 06:16:13;;;;;;;12.23;4.20;;;11.10;99.90;;;;;;5134045;27;20217;-72
2022/10/06 06:18:39;;;;;;;11.07;4.30;;;11.10;99.90;;;;;;5134918;27;20168;-72
2022/10/06 06:21:07;;;;;;;17.57;4.20;;;11.20;99.90;;;;;;5135031;27;20602;-72
2022/10/06 06:23:36;;;;;;;11.53;3.80;;;11.20;99.90;;;;;;5133716;27;20643;-70
2022/10/06 06:26:05;;;;;;;14.17;4.83;;;11.20;99.90;;;;;;5134532;27;20206;-70
2022/10/06 06:28:32;;;;;;;16.80;4.50;;;11.20;99.90;;;;;;5122903;28;20180;-68
2022/10/06 06:31:05;;;;;;;11.97;4.27;;;11.30;99.90;;;;;;5113913;28;20198;-68
2022/10/06 06:33:32;;;;;;;7.97;3.87;;;11.30;99.90;;;;;;5113864;28;20152;-68
2022/10/06 06:36:01;;;;;;;19.77;4.43;;;11.30;99.90;;;;;;5114448;28;20172;-68
2022/10/06 06:38:28;;;;;;;17.07;4.50;;;11.30;99.90;;;;;;5134185;28;20219;-68
2022/10/06 06:40:54;;;;;;;12.70;4.17;;;11.30;99.90;;;;;;5133476;28;20191;-68
2022/10/06 06:43:19;;;;;;;13.80;4.03;;;11.40;99.90;;;;;;5135154;27;20172;-68
2022/10/06 06:45:45;;;;;;;14.80;4.20;;;11.50;99.90;;;;;;5134766;27;20290;-68
2022/10/06 06:48:15;;;;;;;13.23;4.07;;;11.50;99.90;;;;;;5134347;27;20247;-68
2022/10/06 06:50:42;;;;;;;13.07;4.07;;;11.50;99.90;;;;;;5134588;27;20335;-67
2022/10/06 06:53:08;;;;;;;16.57;5.00;;;11.50;99.90;;;;;;5134417;27;20164;-68
2022/10/06 06:55:33;;;;;;;14.40;4.67;;;11.50;99.90;;;;;;5134743;27;20692;-67
2022/10/06 06:57:59;;;;;;;11.53;4.30;;;11.60;99.90;;;;;;5128618;27;20265;-67
2022/10/06 07:00:25;;;;;;;11.03;4.13;;;11.60;99.90;;;;;;5112323;28;20272;-67
2022/10/06 07:02:59;;;;;;;13.80;4.50;;;11.70;99.90;;;;;;5113727;28;20173;-67
2022/10/06 07:05:25;;;;;;;16.60;4.67;;;11.70;99.90;;;;;;5113940;28;20603;-67
2022/10/06 07:07:51;;;;;;;13.90;4.50;;;11.80;99.90;;;;;;5127552;28;20237;-67
2022/10/06 07:10:17;;;;;;;12.77;4.30;;;11.80;99.90;;;;;;5134148;27;20564;-68
2022/10/06 07:12:44;;;;;;;14.50;4.43;;;11.90;99.90;;;;;;5134345;27;20153;-68
2022/10/06 07:26:07;;;;;;;11.27;3.88;;;12.30;99.90;;;;;;5134212;28;20190;-68
2022/10/06 07:28:33;;;;;;;12.23;3.97;;;12.50;99.90;;;;;;5126314;27;20172;-68
2022/10/06 07:30:59;;;;;;;13.23;4.32;;;12.70;99.90;;;;;;5117283;28;20218;-68
2022/10/06 07:33:28;;;;;;;15.00;4.47;;;13.00;99.90;;;;;;5117446;28;20164;-65
2022/10/06 07:35:53;;;;;;;14.10;5.30;;;13.10;99.90;;;;;;5117251;28;20156;-65
2022/10/06 07:38:24;;;;;;;9.60;3.83;;;13.20;99.90;;;;;;5135140;27;20180;-65
2022/10/06 07:40:55;;;;;;;10.93;4.03;;;13.30;99.90;;;;;;5136319;27;20223;-65
2022/10/06 07:43:21;;;;;;;13.75;4.25;;;13.30;99.90;;;;;;5136341;27;20268;-65
2022/10/06 07:45:48;;;;;;;11.07;4.47;;;13.40;99.90;;;;;;5137247;27;20305;-65
2022/10/06 07:48:16;;;;;;;11.93;3.80;;;13.50;99.90;;;;;;5138071;27;20612;-65
2022/10/06 07:50:44;;;;;;;13.07;4.30;;;13.50;99.90;;;;;;5136124;27;20239;-65
2022/10/06 07:53:11;;;;;;;17.67;4.78;;;13.60;99.90;;;;;;5136141;27;20183;-65
2022/10/06 07:55:38;;;;;;;13.60;4.50;;;13.70;99.90;;;;;;5137474;27;20171;-65
2022/10/06 07:58:18;;;;;;;14.00;4.00;;;13.70;99.90;;;;;;5130025;27;20774;-66
2022/10/06 08:00:45;;;;;;;12.25;3.72;;;13.80;99.90;;;;;;5117024;28;20684;-66
2022/10/06 08:03:16;;;;;;;14.48;4.20;;;13.90;99.90;;;;;;5116911;28;20177;-68
2022/10/06 08:05:46;;;;;;;12.15;4.60;;;14.00;99.90;;;;;;5115646;28;20193;-68
2022/10/06 08:08:13;;;;;;;15.25;4.20;;;13.90;99.90;;;;;;5134684;27;20218;-68
2022/10/06 08:10:40;;;;;;;10.82;4.03;;;14.00;99.90;;;;;;5136988;27;20190;-68
2022/10/06 08:13:06;;;;;;;11.30;4.40;;;14.20;99.90;;;;;;5135701;27;20179;-68
2022/10/06 08:15:32;;;;;;;13.85;4.25;;;14.20;99.90;;;;;;5137317;27;20258;-68
2022/10/06 08:18:01;;;;;;;18.50;4.60;;;14.30;99.90;;;;;;5136957;27;20168;-68
2022/10/06 08:20:27;;;;;;;13.57;3.88;;;14.20;99.90;;;;;;5136702;27;20175;-67
2022/10/06 08:22:53;;;;;;;9.85;3.75;;;14.40;99.90;;;;;;5136877;27;20588;-67
2022/10/06 08:25:21;;;;;;;17.25;4.72;;;14.30;99.90;;;;;;5137294;27;20174;-65
2022/10/06 08:27:47;;;;;;;12.80;4.38;;;14.40;99.90;;;;;;5132912;27;20181;-68
2022/10/06 08:30:13;;;;;;;12.57;4.55;;;14.60;99.90;;;;;;5116033;28;20173;-68
2022/10/06 08:32:41;;;;;;;15.02;4.00;;;14.50;99.90;;;;;;5116259;28;20176;-68
2022/10/06 08:35:10;;;;;;;15.93;4.57;;;14.80;99.90;;;;;;5116132;28;20194;-66
2022/10/06 08:37:36;;;;;;;13.48;4.57;;;14.70;99.90;;;;;;5129018;27;20597;-68
2022/10/06 08:40:02;;;;;;;10.52;4.35;;;14.80;99.90;;;;;;5135814;27;20156;-70
2022/10/06 08:42:45;;;;;;;23.05;5.28;;;14.80;99.90;;;;;;5134899;27;20218;-70
2022/10/06 08:45:23;;;;;;;11.77;4.13;;;15.00;99.90;;;;;;5134912;27;20266;-67
2022/10/06 08:47:59;;;;;;;14.25;5.13;;;15.00;99.90;;;;;;5136567;27;20191;-66
2022/10/06 08:50:27;;;;;;;15.27;4.43;;;14.70;99.90;;;;;;5136397;27;20201;-68
2022/10/06 08:53:15;;;;;;;19.17;4.50;;;14.70;99.90;;;;;;5136164;27;20174;-67
2022/10/06 08:55:49;;;;;;;14.77;5.07;;;14.70;99.90;;;;;;5134742;27;20221;-67
2022/10/06 08:58:27;;;;;;;10.68;3.78;;;15.00;99.90;;;;;;5128410;27;20185;-68
2022/10/06 09:00:55;;;;;;;16.48;4.20;;;15.10;99.90;;;;;;5113783;28;20244;-67
2022/10/06 09:03:27;;;;;;;13.65;4.38;;;15.30;99.90;;;;;;5116280;28;20587;-69
2022/10/06 09:05:59;;;;;;;15.68;4.20;;;15.30;99.90;;;;;;5115352;28;20192;-69
2022/10/06 09:08:42;;;;;;;15.75;4.20;;;15.30;99.90;;;;;;5135675;27;20175;-67
2022/10/06 09:11:48;;;;;;;17.73;4.63;;;15.40;99.90;;;;;;5135849;27;20210;-67
2022/10/06 09:14:23;;;;;;;16.75;4.00;;;15.40;99.90;;;;;;5135880;27;20195;-66
2022/10/06 09:16:56;;;;;;;21.80;4.38;;;15.40;99.90;;;;;;5134387;27;20175;-67
2022/10/06 09:19:30;;;;;;;19.80;4.32;;;15.60;99.90;;;;;;5136386;27;20155;-66
2022/10/06 09:21:58;;;;;;;17.08;4.05;;;15.60;99.90;;;;;;5136120;27;20191;-67
2022/10/06 09:24:31;;;;;;;17.50;4.75;;;15.70;99.90;;;;;;5135906;27;20168;-67
2022/10/06 09:27:00;;;;;;;16.15;4.35;;;15.80;99.90;;;;;;5135550;27;20188;-67
2022/10/06 09:29:30;;;;;;;12.73;3.83;;;15.90;99.90;;;;;;5117554;27;20267;-67
2022/10/06 09:31:56;;;;;;;17.75;3.90;;;15.90;99.90;;;;;;5114578;28;20245;-69
2022/10/06 09:34:39;;;;;;;14.57;3.90;;;15.90;99.90;;;;;;5114917;28;20169;-69
2022/10/06 09:37:09;;;;;;;16.00;4.50;;;15.80;99.90;;;;;;5121955;27;20222;-69
2022/10/06 09:39:48;;;;;;;11.32;3.70;;;15.70;99.90;;;;;;5133859;27;20195;-69
2022/10/06 09:42:24;;;;;;;17.17;3.92;;;15.80;99.90;;;;;;5133598;27;20251;-69
2022/10/06 09:44:51;;;;;;;13.25;3.90;;;15.90;99.90;;;;;;5135300;27;20526;-66
2022/10/06 09:47:31;;;;;;;11.52;4.43;;;15.70;99.90;;;;;;5134994;27;20192;-66
2022/10/06 09:50:25;;;;;;;11.98;3.97;;;15.70;99.90;;;;;;5133369;27;20651;-66
2022/10/06 09:52:57;;;;;;;10.18;3.65;;;16.00;99.90;;;;;;5131449;27;20549;-66
2022/10/06 09:55:28;;;;;;;9.98;4.10;;;15.90;99.90;;;;;;5135103;27;20156;-67
2022/10/06 09:57:56;;;;;;;11.63;3.63;;;16.00;99.90;;;;;;5130341;27;20181;-67
2022/10/06 10:00:34;;;;;;;12.02;4.20;;;16.10;99.90;;;;;;5114555;28;20204;-71
2022/10/06 10:03:09;;;;;;;13.10;4.18;;;16.00;99.90;;;;;;5114443;28;20171;-71
2022/10/06 10:05:45;;;;;;;12.07;3.70;;;15.90;99.90;;;;;;5112967;28;20191;-71
2022/10/06 10:08:26;;;;;;;16.33;4.03;;;15.70;99.90;;;;;;5131105;27;20183;-70
2022/10/06 10:11:07;;;;;;;12.18;3.92;;;15.40;99.90;;;;;;5135240;27;20187;-70
2022/10/06 10:13:42;;;;;;;11.82;4.00;;;15.30;99.90;;;;;;5133608;27;20182;-70
2022/10/06 10:16:15;;;;;;;7.85;3.53;;;15.20;99.90;;;;;;5133506;27;20533;-70
2022/10/06 10:18:45;;;;;;;12.18;4.05;;;15.30;99.90;;;;;;5135138;27;20159;-70
2022/10/06 10:21:24;;;;;;;16.67;3.83;;;15.40;99.90;;;;;;5133427;27;20206;-70
2022/10/06 10:23:58;;;;;;;12.70;3.97;;;15.50;99.90;;;;;;5133490;27;20675;-70
2022/10/06 10:26:27;;;;;;;11.30;3.78;;;15.70;99.90;;;;;;5135316;27;20191;-70
2022/10/06 10:29:13;;;;;;;7.13;3.38;;;15.90;99.90;;;;;;5121389;27;20172;-70
2022/10/06 10:31:48;;;;;;;9.68;3.35;;;15.90;99.90;;;;;;5112668;28;20191;-69
2022/10/06 10:34:27;;;;;;;14.35;3.72;;;15.90;99.90;;;;;;5114069;28;20171;-70
2022/10/06 10:37:11;;;;;;;9.90;3.42;;;15.70;99.90;;;;;;5119718;28;20186;-70
2022/10/06 10:40:12;;;;;;;14.50;3.78;;;15.50;99.90;;;;;;5133342;28;20172;-70
2022/10/06 10:43:01;;;;;;;10.10;3.35;;;15.30;99.90;;;;;;5099953;28;20313;-70
2022/10/06 10:45:34;;;;;;;15.02;3.53;;;15.30;99.90;;;;;;5134873;27;20187;-71
2022/10/06 10:48:06;;;;;;;12.70;3.75;;;15.40;99.90;;;;;;5134998;27;20235;-70
2022/10/06 10:51:10;;;;;;;7.78;3.50;;;15.50;99.90;;;;;;5135217;27;20152;-71
2022/10/06 10:53:46;;;;;;;9.63;3.65;;;15.50;99.90;;;;;;5118511;27;20183;-70
2022/10/06 10:56:15;;;;;;;12.95;3.40;;;15.60;99.90;;;;;;5132994;28;20655;-70
2022/10/06 10:58:46;;;;;;;13.85;3.80;;;15.70;99.90;;;;;;5121601;28;20208;-70
2022/10/06 11:01:30;;;;;;;8.07;3.00;;;15.70;99.90;;;;;;5113833;28;20278;-71
2022/10/06 11:03:57;;;;;;;11.45;3.28;;;15.90;99.90;;;;;;5116136;28;20184;-71
2022/10/06 11:06:44;;;;;;;13.75;3.45;;;15.90;99.90;;;;;;5119247;27;20195;-70
2022/10/06 11:09:17;;;;;;;9.68;3.33;;;16.10;99.90;;;;;;5138537;27;20233;-70
2022/10/06 11:11:49;;;;;;;10.43;3.65;;;16.00;99.90;;;;;;5138539;27;20195;-68
2022/10/06 11:14:42;;;;;;;10.02;2.95;;;16.00;99.90;;;;;;5138447;27;20535;-67
2022/10/06 11:17:26;;;;;;;10.77;3.47;;;16.00;99.90;;;;;;5137825;27;20160;-67
2022/10/06 11:20:13;;;;;;;10.85;3.97;;;15.70;99.90;;;;;;5138084;27;20178;-67
2022/10/06 11:23:10;;;;;;;9.02;3.20;;;15.70;99.90;;;;;;5138039;27;20195;-68
2022/10/06 11:25:50;;;;;;;11.20;3.13;;;16.00;99.90;;;;;;5137997;27;20553;-67
2022/10/06 11:28:19;;;;;;;14.95;2.97;;;16.30;99.90;;;;;;5129683;27;20194;-67
2022/10/06 11:30:56;;;;;;;16.65;3.60;;;16.60;99.90;;;;;;5117074;28;20245;-65
2022/10/06 11:33:32;;;;;;;13.32;3.50;;;16.90;99.90;;;;;;5117953;28;20240;-65
2022/10/06 11:36:00;;;;;;;10.45;3.20;;;17.10;99.90;;;;;;5117529;28;20243;-66
2022/10/06 11:38:48;;;;;;;12.50;2.88;;;17.40;99.90;;;;;;5137489;27;20706;-65
2022/10/06 11:41:29;;;;;;;7.38;3.05;;;17.30;99.90;;;;;;5135975;27;20279;-66
2022/10/06 11:44:12;;;;;;;7.93;2.92;;;17.30;99.90;;;;;;5138104;27;20160;-65
2022/10/06 11:46:52;;;;;;;10.73;2.83;;;17.40;99.90;;;;;;5137261;27;20194;-67
2022/10/06 11:49:27;;;;;;;11.52;3.15;;;17.70;99.90;;;;;;5136203;27;20220;-65
2022/10/06 11:51:54;;;;;;;11.38;2.75;;;17.60;99.90;;;;;;5137394;27;20655;-67
2022/10/06 11:54:42;;;;;;;8.15;3.20;;;17.70;99.90;;;;;;5136103;27;20176;-67
2022/10/06 11:57:25;;;;;;;7.53;2.85;;;17.60;99.90;;;;;;5137427;27;20212;-67
2022/10/06 11:59:55;;;;;;;8.85;2.95;;;17.90;99.90;;;;;;5095383;28;20188;-67
2022/10/06 12:02:36;;;;;;;8.60;3.15;;;17.90;99.90;;;;;;5096343;28;20201;-68
2022/10/06 12:05:14;;;;;;;5.75;2.90;;;17.90;99.90;;;;;;5097491;28;20240;-67
2022/10/06 12:07:54;;;;;;;10.32;2.67;;;18.00;99.90;;;;;;5124655;27;20207;-67
2022/10/06 12:10:30;;;;;;;4.63;2.53;;;18.00;99.90;;;;;;5138276;27;20176;-66
2022/10/06 12:13:18;;;;;;;8.82;2.90;;;17.90;99.90;;;;;;5137046;27;20159;-66
2022/10/06 12:16:02;;;;;;;9.15;2.90;;;18.10;99.90;;;;;;5136802;27;20167;-66
2022/10/06 12:18:30;;;;;;;10.98;3.00;;;18.10;99.90;;;;;;5135921;27;20514;-66
2022/10/06 12:21:30;;;;;;;6.60;2.30;;;18.40;99.90;;;;;;5136766;27;20195;-67
2022/10/06 12:24:35;;;;;;;8.18;2.88;;;18.50;99.90;;;;;;5136723;27;20175;-66
2022/10/06 12:27:38;;;;;;;10.85;2.40;;;17.80;99.90;;;;;;5134315;27;20212;-67
2022/10/06 12:30:48;;;;;;;6.85;2.42;;;18.20;99.90;;;;;;5095711;28;20157;-67
2022/10/06 12:33:17;;;;;;;8.88;2.53;;;18.50;99.90;;;;;;5055467;28;20196;-66
2022/10/06 12:35:43;;;;;;;7.78;2.78;;;18.10;99.90;;;;;;5095493;28;20565;-66
2022/10/06 12:38:31;;;;;;;14.27;2.80;;;18.20;99.90;;;;;;5130770;27;20176;-66
2022/10/06 12:40:58;;;;;;;7.63;2.88;;;18.30;99.90;;;;;;5134937;27;20202;-66
2022/10/06 12:43:33;;;;;;;8.32;2.60;;;18.50;99.90;;;;;;5137032;27;20210;-66
2022/10/06 12:46:06;;;;;;;11.27;2.97;;;18.60;99.90;;;;;;5134965;27;20195;-66
2022/10/06 12:48:50;;;;;;;7.97;2.67;;;18.70;99.90;;;;;;5136257;27;20152;-66
2022/10/06 12:51:34;;;;;;;9.70;2.55;;;18.70;99.90;;;;;;5136250;27;20194;-66
2022/10/06 12:54:11;;;;;;;7.65;2.88;;;19.00;99.90;;;;;;5136765;27;20549;-67
2022/10/06 12:56:39;;;;;;;8.88;2.70;;;18.70;99.90;;;;;;5136129;27;20163;-66
2022/10/06 12:59:21;;;;;;;8.85;2.60;;;18.50;99.90;;;;;;5121151;27;20271;-66
2022/10/06 13:02:03;;;;;;;7.45;2.85;;;18.50;99.90;;;;;;5113982;28;20205;-66
2022/10/06 13:04:30;;;;;;;6.72;2.83;;;18.40;99.90;;;;;;5116058;28;20184;-66
2022/10/06 13:06:56;;;;;;;8.48;2.70;;;18.40;99.90;;;;;;5122614;27;20200;-67
2022/10/06 13:09:22;;;;;;;5.88;2.72;;;18.40;99.90;;;;;;5136437;27;20152;-66
2022/10/06 13:11:48;;;;;;;6.13;2.25;;;18.50;99.90;;;;;;5135619;27;20660;-67